createdAt,value
2018-12-21T00:01:52.266Z,99051.64
2018-12-21T00:04:31.882Z,99054.59
2018-12-21T00:07:09.044Z,99055.42
2018-12-21T00:09:50.606Z,99050.55
2018-12-21T00:12:29.022Z,99049.78
2018-12-21T00:15:07.842Z,99051.86
2018-12-21T00:17:42.875Z,99056.84
2018-12-21T00:20:22.642Z,99040.87
2018-12-21T00:22:59.999Z,99037.11
2018-12-21T00:25:38.546Z,99033.36
2018-12-21T00:28:17.022Z,99021.68
2018-12-21T00:30:50.548Z,99023.17
2018-12-21T00:33:33.686Z,99015.51
2018-12-21T00:36:16.714Z,99014.35
2018-12-21T00:38:59.938Z,99015.75
2018-12-21T00:41:34.895Z,99010.87
2018-12-21T00:44:14.993Z,98998.03
2018-12-21T00:46:50.234Z,98997.34
2018-12-21T00:49:27.498Z,98996.08
2018-12-21T00:52:05.344Z,98998.78
2018-12-21T00:54:44.103Z,99005.61
2018-12-21T00:57:18.499Z,99003.67
2018-12-21T00:59:53.846Z,98998.59
2018-12-21T01:02:35.186Z,98995.94
2018-12-21T01:05:14.406Z,98996.48
2018-12-21T01:07:52.950Z,99004.69
2018-12-21T01:10:27.692Z,98999.04
2018-12-21T01:13:02.609Z,98994.24
2018-12-21T01:15:41.162Z,99007.30
2018-12-21T01:18:19.301Z,98999.63
2018-12-21T01:20:57.662Z,98998.27
2018-12-21T01:23:35.698Z,98997.63
2018-12-21T01:26:12.000Z,99002.27
2018-12-21T01:28:46.522Z,99000.26
2018-12-21T01:31:22.684Z,98995.08
2018-12-21T01:33:56.693Z,98984.17
2018-12-21T01:36:33.202Z,98994.98
2018-12-21T01:39:12.231Z,98994.13
2018-12-21T01:41:50.538Z,98987.25
2018-12-21T01:44:26.818Z,98983.45
2018-12-21T01:47:02.823Z,98983.69
2018-12-21T01:49:39.052Z,98993.50
2018-12-21T01:52:13.370Z,98984.77
2018-12-21T01:54:47.955Z,98981.63
2018-12-21T01:57:23.954Z,98983.69
2018-12-21T02:00:00.508Z,98984.00
2018-12-21T02:02:34.646Z,98976.96
2018-12-21T02:05:10.990Z,98977.22
2018-12-21T02:07:50.553Z,98980.53
2018-12-21T02:10:22.387Z,98974.50
2018-12-21T02:12:59.143Z,98971.87
2018-12-21T02:15:37.188Z,98966.53
2018-12-21T02:18:16.078Z,98958.47
2018-12-21T02:20:54.000Z,98954.22
2018-12-21T02:23:29.053Z,98947.42
2018-12-21T02:26:05.215Z,98951.22
2018-12-21T02:28:39.669Z,98940.91
2018-12-21T02:31:17.886Z,98935.99
2018-12-21T02:33:56.261Z,98932.52
2018-12-21T02:36:34.391Z,98936.45
2018-12-21T02:39:08.619Z,98926.16
2018-12-21T02:41:46.762Z,98920.59
2018-12-21T02:44:21.370Z,98912.45
2018-12-21T02:46:59.762Z,98905.66
2018-12-21T02:49:36.356Z,98901.17
2018-12-21T02:52:08.143Z,98899.64
2018-12-21T02:54:46.057Z,98891.38
2018-12-21T02:57:20.299Z,98886.25
2018-12-21T02:59:58.713Z,98875.81
2018-12-21T03:02:35.241Z,98879.97
2018-12-21T03:05:09.570Z,98871.10
2018-12-21T03:07:50.152Z,98866.27
2018-12-21T03:10:37.243Z,98863.42
2018-12-21T03:13:15.912Z,98859.56
2018-12-21T03:15:55.031Z,98856.84
2018-12-21T03:18:33.458Z,98849.89
2018-12-21T03:21:13.174Z,98849.25
2018-12-21T03:23:52.748Z,98846.95
2018-12-21T03:26:31.103Z,98843.52
2018-12-21T03:29:10.397Z,98833.47
2018-12-21T03:31:47.783Z,98837.27
2018-12-21T03:34:22.024Z,98842.95
2018-12-21T03:36:58.522Z,98827.73
2018-12-21T03:39:36.924Z,98820.84
2018-12-21T03:42:15.473Z,98824.73
2018-12-21T03:44:54.174Z,98814.97
2018-12-21T03:47:32.315Z,98816.98
2018-12-21T03:50:10.637Z,98807.81
2018-12-21T03:52:48.684Z,98794.77
2018-12-21T03:55:22.716Z,98792.29
2018-12-21T03:58:01.282Z,98788.43
2018-12-21T04:00:35.247Z,98788.98
2018-12-21T04:03:14.474Z,98789.66
2018-12-21T04:05:52.669Z,98791.59
2018-12-21T04:08:28.918Z,98787.81
2018-12-21T04:11:03.031Z,98784.02
2018-12-21T04:13:37.293Z,98772.65
2018-12-21T04:16:17.086Z,98776.19
2018-12-21T04:19:02.100Z,98771.71
2018-12-21T04:21:38.752Z,98786.77
2018-12-21T04:24:12.902Z,98783.23
2018-12-21T04:26:49.000Z,98776.50
2018-12-21T04:29:23.153Z,98782.06
2018-12-21T04:31:59.794Z,98777.50
2018-12-21T04:34:37.741Z,98773.56
2018-12-21T04:37:16.081Z,98778.88
2018-12-21T04:39:48.187Z,98781.97
2018-12-21T04:42:20.265Z,98768.32
2018-12-21T04:44:58.959Z,98770.31
2018-12-21T04:47:37.388Z,98766.60
2018-12-21T04:50:15.640Z,98770.92
2018-12-21T04:52:53.833Z,98766.98
2018-12-21T04:55:28.157Z,98745.49
2018-12-21T04:58:07.272Z,98764.28
2018-12-21T05:00:43.864Z,98758.85
2018-12-21T05:03:18.264Z,98751.89
2018-12-21T05:05:54.809Z,98743.42
2018-12-21T05:08:28.696Z,98727.31
2018-12-21T05:11:07.165Z,98716.64
2018-12-21T05:13:45.235Z,98708.31
2018-12-21T05:16:23.038Z,98700.75
2018-12-21T05:18:59.290Z,98695.02
2018-12-21T05:21:33.786Z,98699.52
2018-12-21T05:24:07.909Z,98695.66
2018-12-21T05:26:44.233Z,98685.34
2018-12-21T05:29:19.470Z,98684.12
2018-12-21T05:31:57.572Z,98682.05
2018-12-21T05:34:35.938Z,98674.97
2018-12-21T05:37:12.146Z,98668.98
2018-12-21T05:39:48.361Z,98650.69
2018-12-21T05:42:27.461Z,98656.88
2018-12-21T05:45:05.663Z,98644.67
2018-12-21T05:47:42.317Z,98648.99
2018-12-21T05:50:20.482Z,98641.33
2018-12-21T05:53:00.830Z,98638.70
2018-12-21T05:55:39.878Z,98635.64
2018-12-21T05:58:14.128Z,98636.87
2018-12-21T06:00:53.803Z,98640.63
2018-12-21T06:03:31.987Z,98627.38
2018-12-21T06:06:06.459Z,98640.81
2018-12-21T06:08:42.598Z,98635.64
2018-12-21T06:11:16.834Z,98634.03
2018-12-21T06:13:55.102Z,98620.02
2018-12-21T06:16:33.692Z,98603.70
2018-12-21T06:19:12.371Z,98618.27
2018-12-21T06:21:51.030Z,98603.99
2018-12-21T06:24:29.731Z,98599.24
2018-12-21T06:27:08.263Z,98581.55
2018-12-21T06:29:46.551Z,98563.61
2018-12-21T06:32:23.005Z,98558.11
2018-12-21T06:34:57.887Z,98562.23
2018-12-21T06:37:36.391Z,98549.00
2018-12-21T06:40:15.007Z,98549.47
2018-12-21T06:42:53.721Z,98530.74
2018-12-21T06:45:32.368Z,98521.25
2018-12-21T06:48:10.434Z,98522.80
2018-12-21T06:50:48.806Z,98489.80
2018-12-21T06:53:22.743Z,98492.71
2018-12-21T06:56:01.018Z,98489.62
2018-12-21T06:58:45.579Z,98478.34
2018-12-21T07:01:19.461Z,98469.37
2018-12-21T07:04:00.872Z,98475.52
2018-12-21T07:06:36.709Z,98465.54
2018-12-21T07:09:15.090Z,98458.81
2018-12-21T07:11:53.631Z,98449.90
2018-12-21T07:14:32.091Z,98451.96
2018-12-21T07:17:08.250Z,98445.95
2018-12-21T07:19:47.795Z,98455.34
2018-12-21T07:22:29.995Z,98453.47
2018-12-21T07:25:08.447Z,98454.13
2018-12-21T07:27:48.789Z,98446.23
2018-12-21T07:33:13.290Z,98442.89
2018-12-21T07:35:48.821Z,98420.91
2018-12-21T07:38:35.094Z,98420.26
2018-12-21T07:41:22.141Z,98425.36
2018-12-21T07:44:07.016Z,98402.04
2018-12-21T07:46:50.425Z,98388.23
2018-12-21T07:49:26.562Z,98391.33
2018-12-21T07:52:01.989Z,98392.17
2018-12-21T07:54:39.223Z,98372.17
2018-12-21T07:57:23.992Z,98364.88
2018-12-21T08:00:02.311Z,98383.34
2018-12-21T08:02:37.161Z,98370.32
2018-12-21T08:05:16.382Z,98368.73
2018-12-21T08:07:52.941Z,98363.84
2018-12-21T08:10:38.306Z,98357.76
2018-12-21T08:13:19.242Z,98358.98
2018-12-21T08:15:57.082Z,98353.80
2018-12-21T08:18:44.370Z,98357.75
2018-12-21T08:21:23.474Z,98354.58
2018-12-21T08:24:01.565Z,98367.26
2018-12-21T08:29:22.147Z,98352.80
2018-12-21T08:31:58.470Z,98335.77
2018-12-21T08:34:35.283Z,98339.99
2018-12-21T08:37:14.059Z,98326.47
2018-12-21T08:39:53.151Z,98335.04
2018-12-21T08:42:36.209Z,98319.80
2018-12-21T08:45:19.921Z,98318.59
2018-12-21T08:48:02.215Z,98315.28
2018-12-21T08:50:40.564Z,98296.86
2018-12-21T08:53:15.802Z,98297.06
2018-12-21T08:55:52.098Z,98305.60
2018-12-21T08:58:31.230Z,98288.23
2018-12-21T09:01:10.425Z,98282.12
2018-12-21T09:03:49.090Z,98272.17
2018-12-21T09:06:25.222Z,98268.97
2018-12-21T09:08:59.250Z,98276.86
2018-12-21T09:11:35.499Z,98261.25
2018-12-21T09:14:13.818Z,98258.45
2018-12-21T09:16:50.495Z,98254.67
2018-12-21T09:19:27.308Z,98240.19
2018-12-21T09:22:06.087Z,98244.70
2018-12-21T09:24:44.694Z,98237.45
2018-12-21T09:27:22.798Z,98230.23
2018-12-21T09:30:01.206Z,98220.55
2018-12-21T09:32:37.730Z,98197.80
2018-12-21T09:35:17.078Z,98196.38
2018-12-21T09:37:53.151Z,98199.28
2018-12-21T09:40:29.180Z,98180.38
2018-12-21T09:43:10.394Z,98160.06
2018-12-21T09:45:54.477Z,98158.27
2018-12-21T09:51:19.553Z,98132.25
2018-12-21T09:53:55.401Z,98131.93
2018-12-21T09:56:32.709Z,98125.34
2018-12-21T09:59:16.907Z,98110.87
2018-12-21T10:01:51.495Z,98103.05
2018-12-21T10:04:29.815Z,98104.19
2018-12-21T10:07:07.627Z,98105.28
2018-12-21T10:09:47.104Z,98105.76
2018-12-21T10:12:25.667Z,98108.47
2018-12-21T10:15:04.452Z,98094.57
2018-12-21T10:17:38.889Z,98079.62
2018-12-21T10:20:19.910Z,98087.30
2018-12-21T10:22:55.838Z,98089.46
2018-12-21T10:25:29.900Z,98079.19
2018-12-21T10:28:08.354Z,98070.92
2018-12-21T10:30:43.792Z,98056.51
2018-12-21T10:33:19.537Z,98042.80
2018-12-21T10:35:56.415Z,98047.88
2018-12-21T10:38:32.486Z,98022.64
2018-12-21T10:41:09.499Z,98031.75
2018-12-21T10:43:47.004Z,98023.34
2018-12-21T10:46:21.586Z,98026.08
2018-12-21T10:48:59.866Z,98017.08
2018-12-21T10:51:38.260Z,98012.69
2018-12-21T10:54:17.647Z,98005.73
2018-12-21T10:56:54.403Z,98004.95
2018-12-21T10:59:28.404Z,97999.69
2018-12-21T11:02:03.112Z,97989.63
2018-12-21T11:04:49.378Z,97999.41
2018-12-21T11:07:23.925Z,97986.41
2018-12-21T11:10:02.203Z,97972.06
2018-12-21T11:12:39.002Z,97963.20
2018-12-21T11:15:11.785Z,97956.67
2018-12-21T11:17:55.411Z,97953.34
2018-12-21T11:20:30.442Z,97951.35
2018-12-21T11:23:07.142Z,97955.30
2018-12-21T11:25:41.519Z,97949.38
2018-12-21T11:28:25.183Z,97949.52
2018-12-21T11:30:54.199Z,97952.73
2018-12-21T11:33:32.335Z,97947.17
2018-12-21T11:36:10.705Z,97948.26
2018-12-21T11:38:51.912Z,97937.96
2018-12-21T11:41:29.197Z,97960.71
2018-12-21T11:44:03.849Z,97950.71
2018-12-21T11:46:44.230Z,97939.84
2018-12-21T11:49:19.676Z,97943.33
2018-12-21T11:52:02.576Z,97950.29
2018-12-21T11:54:44.417Z,97949.81
2018-12-21T11:57:20.726Z,97941.75
2018-12-21T11:59:56.177Z,97923.41
2018-12-21T12:02:36.613Z,97926.41
2018-12-21T12:05:16.458Z,97924.84
2018-12-21T12:07:54.414Z,97926.56
2018-12-21T12:10:37.157Z,97915.53
2018-12-21T12:13:18.696Z,97916.89
2018-12-21T12:15:57.644Z,97919.61
2018-12-21T12:18:32.195Z,97923.79
2018-12-21T12:21:09.094Z,97905.70
2018-12-21T12:23:47.995Z,97910.41
2018-12-21T12:26:30.428Z,97911.94
2018-12-21T12:29:11.038Z,97914.95
2018-12-21T12:31:45.514Z,97908.87
2018-12-21T12:34:24.475Z,97911.73
2018-12-21T12:37:03.008Z,97916.41
2018-12-21T12:39:39.495Z,97906.35
2018-12-21T12:42:15.648Z,97908.72
2018-12-21T12:44:53.825Z,97900.59
2018-12-21T12:47:30.173Z,97903.83
2018-12-21T12:50:11.528Z,97909.95
2018-12-21T12:52:52.242Z,97905.87
2018-12-21T12:55:30.200Z,97915.73
2018-12-21T12:58:06.495Z,97913.09
2018-12-21T13:00:42.834Z,97908.16
2018-12-21T13:03:21.162Z,97919.33
2018-12-21T13:05:59.520Z,97922.94
2018-12-21T13:08:39.007Z,97924.61
2018-12-21T13:11:14.077Z,97923.41
2018-12-21T13:13:52.738Z,97933.03
2018-12-21T13:16:31.388Z,97930.39
2018-12-21T13:19:07.605Z,97924.73
2018-12-21T13:21:40.991Z,97927.64
2018-12-21T13:24:15.741Z,97931.23
2018-12-21T13:26:50.586Z,97936.27
2018-12-21T13:29:28.573Z,97935.91
2018-12-21T13:32:05.043Z,97906.14
2018-12-21T13:34:39.254Z,97925.70
2018-12-21T13:37:17.810Z,97923.80
2018-12-21T13:39:54.151Z,97918.14
2018-12-21T13:42:28.559Z,97925.47
2018-12-21T13:45:09.729Z,97921.50
2018-12-21T13:47:48.594Z,97919.34
2018-12-21T13:50:24.982Z,97926.56
2018-12-21T13:52:59.835Z,97916.95
2018-12-21T13:55:38.018Z,97914.54
2018-12-21T13:58:14.330Z,97908.39
2018-12-21T14:00:48.485Z,97923.55
2018-12-21T14:03:27.007Z,97928.22
2018-12-21T14:06:02.382Z,97934.13
2018-12-21T14:08:38.643Z,97953.70
2018-12-21T14:11:14.899Z,97947.56
2018-12-21T14:13:52.937Z,97955.00
2018-12-21T14:16:29.262Z,97968.34
2018-12-21T14:19:03.356Z,97958.73
2018-12-21T14:21:41.630Z,97975.89
2018-12-21T14:24:17.918Z,97973.52
2018-12-21T14:26:51.973Z,97981.06
2018-12-21T14:29:26.337Z,97976.39
2018-12-21T14:32:02.592Z,97967.88
2018-12-21T14:34:37.049Z,97957.89
2018-12-21T14:37:13.965Z,97958.02
2018-12-21T14:39:48.607Z,97962.21
2018-12-21T14:42:22.746Z,97970.16
2018-12-21T14:44:58.945Z,97960.06
2018-12-21T14:47:33.318Z,97957.16
2018-12-21T14:50:10.655Z,97958.01
2018-12-21T14:52:44.832Z,97955.72
2018-12-21T14:55:23.126Z,97974.71
2018-12-21T14:57:57.279Z,97975.42
2018-12-21T15:00:41.791Z,97967.50
2018-12-21T15:03:19.850Z,97976.73
2018-12-21T15:05:57.898Z,97982.88
2018-12-21T15:08:37.074Z,97971.36
2018-12-21T15:11:13.654Z,97983.48
2018-12-21T15:13:45.897Z,97982.29
2018-12-21T15:16:22.087Z,97989.73
2018-12-21T15:18:57.322Z,97976.98
2018-12-21T15:21:35.646Z,97976.98
2018-12-21T15:24:12.128Z,97985.25
2018-12-21T15:26:48.763Z,97989.09
2018-12-21T15:29:29.132Z,97982.72
2018-12-21T15:32:01.094Z,97978.02
2018-12-21T15:34:42.826Z,97992.08
2018-12-21T15:37:22.660Z,97977.05
2018-12-21T15:39:59.725Z,97982.30
2018-12-21T15:42:37.056Z,97975.95
2018-12-21T15:45:09.342Z,97989.84
2018-12-21T15:47:47.804Z,98005.02
2018-12-21T15:50:24.638Z,97984.63
2018-12-21T15:52:58.793Z,97975.45
2018-12-21T15:55:35.773Z,97996.00
2018-12-21T15:58:11.905Z,97990.00
2018-12-21T16:00:51.335Z,97992.17
2018-12-21T16:03:32.421Z,97996.97
2018-12-21T16:06:09.885Z,97993.92
2018-12-21T16:08:44.520Z,98002.36
2018-12-21T16:11:23.078Z,98004.64
2018-12-21T16:13:57.939Z,98008.34
2018-12-21T16:16:34.536Z,98009.94
2018-12-21T16:19:11.191Z,98020.13
2018-12-21T16:21:48.106Z,98013.36
2018-12-21T16:24:23.113Z,98021.27
2018-12-21T16:26:57.584Z,98034.27
2018-12-21T16:29:38.003Z,98026.11
2018-12-21T16:32:15.940Z,98016.45
2018-12-21T16:34:54.218Z,98022.02
2018-12-21T16:37:28.266Z,98015.94
2018-12-21T16:40:02.652Z,98000.88
2018-12-21T16:42:38.817Z,98010.31
2018-12-21T16:45:14.431Z,98022.50
2018-12-21T16:47:54.853Z,98015.09
2018-12-21T16:50:33.891Z,98031.27
2018-12-21T16:53:13.014Z,98019.96
2018-12-21T16:55:51.046Z,98032.02
2018-12-21T16:58:26.347Z,98033.59
2018-12-21T17:01:00.601Z,98026.11
2018-12-21T17:03:35.758Z,98043.00
2018-12-21T17:06:10.509Z,98043.97
2018-12-21T17:08:46.722Z,98048.30
2018-12-21T17:11:20.882Z,98046.97
2018-12-21T17:13:57.730Z,98056.77
2018-12-21T17:16:32.283Z,98036.59
2018-12-21T17:19:14.135Z,98034.14
2018-12-21T17:21:55.195Z,98039.05
2018-12-21T17:24:25.205Z,98022.73
2018-12-21T17:27:02.122Z,98022.17
2018-12-21T17:29:37.066Z,98035.92
2018-12-21T17:32:11.543Z,98033.09
2018-12-21T17:34:41.545Z,98015.69
2018-12-21T17:37:17.013Z,98023.19
2018-12-21T17:39:54.431Z,98024.56
2018-12-21T17:42:37.781Z,98024.01
2018-12-21T17:45:18.448Z,98021.70
2018-12-21T17:47:48.951Z,98035.61
2018-12-21T17:50:23.372Z,98035.77
2018-12-21T17:52:58.059Z,98029.79
2018-12-21T17:55:46.802Z,98041.45
2018-12-21T17:58:19.176Z,98041.73
2018-12-21T18:00:59.927Z,98046.59
2018-12-21T18:03:49.851Z,98054.23
2018-12-21T18:06:18.586Z,98062.20
2018-12-21T18:08:55.538Z,98055.19
2018-12-21T18:11:24.306Z,98057.50
2018-12-21T18:13:58.842Z,98107.72
2018-12-21T18:16:27.330Z,98067.38
2018-12-21T18:19:05.764Z,98070.87
2018-12-21T18:21:43.674Z,98075.78
2018-12-21T18:24:22.384Z,98076.56
2018-12-21T18:26:57.981Z,98083.83
2018-12-21T18:29:27.096Z,98092.74
2018-12-21T18:32:33.438Z,98084.39
2018-12-21T18:35:13.325Z,98087.36
2018-12-21T18:37:52.599Z,98083.27
2018-12-21T18:40:30.002Z,98083.65
2018-12-21T18:43:16.542Z,98101.75
2018-12-21T18:45:56.283Z,98100.36
2018-12-21T18:48:40.133Z,98104.20
2018-12-21T18:51:18.542Z,98106.47
2018-12-21T18:53:50.277Z,98111.37
2018-12-21T18:56:30.038Z,98112.92
2018-12-21T18:59:10.438Z,98121.17
2018-12-21T19:01:47.557Z,98115.58
2018-12-21T19:04:24.053Z,98125.84
2018-12-21T19:06:58.692Z,98116.83
2018-12-21T19:09:36.842Z,98120.05
2018-12-21T19:12:11.857Z,98134.20
2018-12-21T19:14:48.043Z,98130.74
2018-12-21T19:17:26.711Z,98132.92
2018-12-21T19:20:06.057Z,98127.06
2018-12-21T19:22:44.758Z,98103.97
2018-12-21T19:25:23.298Z,98126.72
2018-12-21T19:28:01.506Z,98126.43
2018-12-21T19:30:39.604Z,98123.18
2018-12-21T19:33:16.438Z,98127.09
2018-12-21T19:35:54.514Z,98133.72
2018-12-21T19:38:30.171Z,98135.18
2018-12-21T19:41:09.039Z,98134.78
2018-12-21T19:43:45.867Z,98142.73
2018-12-21T19:46:20.258Z,98144.00
2018-12-21T19:48:55.595Z,98149.42
2018-12-21T19:51:29.940Z,98161.98
2018-12-21T19:54:07.231Z,98157.44
2018-12-21T19:56:48.094Z,98150.50
2018-12-21T19:59:19.926Z,98166.11
2018-12-21T20:01:58.242Z,98173.06
2018-12-21T20:04:38.467Z,98168.02
2018-12-21T20:07:25.024Z,98184.99
2018-12-21T20:09:59.759Z,98183.31
2018-12-21T20:12:36.007Z,98190.48
2018-12-21T20:15:10.375Z,98191.87
2018-12-21T20:17:48.911Z,98202.55
2018-12-21T20:20:25.808Z,98201.99
2018-12-21T20:23:02.579Z,98197.80
2018-12-21T20:25:41.385Z,98183.16
2018-12-21T20:28:20.171Z,98177.98
2018-12-21T20:30:59.127Z,98176.86
2018-12-21T20:33:41.988Z,98161.12
2018-12-21T20:36:16.631Z,98160.96
2018-12-21T20:38:50.878Z,98170.45
2018-12-21T20:41:29.269Z,98161.52
2018-12-21T20:44:06.618Z,98158.16
2018-12-21T20:46:41.722Z,98171.53
2018-12-21T20:49:16.844Z,98171.55
2018-12-21T20:51:47.405Z,98177.58
2018-12-21T20:54:23.154Z,98189.20
2018-12-21T20:57:04.245Z,98194.12
2018-12-21T20:59:43.699Z,98200.38
2018-12-21T21:02:17.938Z,98204.59
2018-12-21T21:04:59.110Z,98207.58
2018-12-21T21:07:35.795Z,98215.25
2018-12-21T21:10:13.931Z,98213.56
2018-12-21T21:12:50.329Z,98222.70
2018-12-21T21:15:22.165Z,98210.72
2018-12-21T21:17:57.141Z,98222.31
2018-12-21T21:20:32.627Z,98226.51
2018-12-21T21:23:08.224Z,98228.83
2018-12-21T21:25:47.302Z,98228.59
2018-12-21T21:28:25.250Z,98237.16
2018-12-21T21:31:02.530Z,98244.77
2018-12-21T21:33:37.882Z,98240.79
2018-12-21T21:36:14.201Z,98235.72
2018-12-21T21:38:50.523Z,98233.76
2018-12-21T21:41:26.753Z,98248.94
2018-12-21T21:44:03.739Z,98255.03
2018-12-21T21:46:50.780Z,98261.19
2018-12-21T21:49:25.154Z,98263.83
2018-12-21T21:52:03.214Z,98277.71
2018-12-21T21:54:43.623Z,98283.51
2018-12-21T21:57:12.330Z,98259.14
2018-12-21T21:59:52.736Z,98270.16
2018-12-21T22:02:25.021Z,98275.19
2018-12-21T22:05:04.027Z,98278.55
2018-12-21T22:07:42.680Z,98273.26
2018-12-21T22:10:23.345Z,98286.16
2018-12-21T22:13:00.761Z,98287.35
2018-12-21T22:15:35.342Z,98289.78
2018-12-21T22:18:12.486Z,98288.06
2018-12-21T22:20:50.425Z,98280.50
2018-12-21T22:23:24.818Z,98279.44
2018-12-21T22:25:57.347Z,98277.41
2018-12-21T22:28:34.246Z,98287.88
2018-12-21T22:31:09.232Z,98286.23
2018-12-21T22:33:49.752Z,98292.38
2018-12-21T22:36:24.210Z,98294.94
2018-12-21T22:39:03.878Z,98288.79
2018-12-21T22:41:38.587Z,98287.00
2018-12-21T22:44:16.677Z,98292.44
2018-12-21T22:46:54.942Z,98298.67
2018-12-21T22:49:29.253Z,98311.46
2018-12-21T22:52:03.511Z,98298.81
2018-12-21T22:54:37.898Z,98305.70
2018-12-21T22:57:09.974Z,98310.63
2018-12-21T22:59:51.016Z,98309.08
2018-12-21T23:02:28.556Z,98298.10
2018-12-21T23:05:05.722Z,98308.45
2018-12-21T23:07:39.652Z,98313.89
2018-12-21T23:10:24.376Z,98319.66
2018-12-21T23:13:03.535Z,98328.22
2018-12-21T23:15:38.666Z,98336.63
2018-12-21T23:18:18.272Z,98335.91
2018-12-21T23:20:52.865Z,98334.72
2018-12-21T23:23:29.533Z,98327.61
2018-12-21T23:26:07.579Z,98327.97
2018-12-21T23:28:48.129Z,98326.78
2018-12-21T23:31:26.161Z,98322.30
2018-12-21T23:34:00.506Z,98328.81
2018-12-21T23:36:39.346Z,98342.30
2018-12-21T23:39:18.591Z,98327.00
2018-12-21T23:41:54.418Z,98329.89
2018-12-21T23:44:26.249Z,98328.83
2018-12-21T23:47:02.013Z,98332.77
2018-12-21T23:49:38.291Z,98338.33
2018-12-21T23:52:10.291Z,98331.44
2018-12-21T23:54:48.847Z,98326.75
2018-12-21T23:57:27.147Z,98323.27
